Map

Track Data

SID SEASON NUMBER BASIN SUBBASIN NAME ISO_TIME NATURE LAT LON WMO_WIND WMO_PRES WMO_AGENCY TRACK_TYPE DIST2LAND LANDFALL IFLAG USA_AGENCY USA_ATCF_ID USA_LAT USA_LON USA_RECORD USA_STATUS USA_WIND USA_PRES USA_SSHS USA_R34_NE USA_R34_SE USA_R34_SW USA_R34_NW USA_R50_NE USA_R50_SE USA_R50_SW USA_R50_NW USA_R64_NE USA_R64_SE USA_R64_SW USA_R64_NW USA_POCI USA_ROCI USA_RMW USA_EYE TOKYO_LAT TOKYO_LON TOKYO_GRADE TOKYO_WIND TOKYO_PRES TOKYO_R50_DIR TOKYO_R50_LONG TOKYO_R50_SHORT TOKYO_R30_DIR TOKYO_R30_LONG TOKYO_R30_SHORT TOKYO_LAND CMA_LAT CMA_LON CMA_CAT CMA_WIND CMA_PRES HKO_LAT HKO_LON HKO_CAT HKO_WIND HKO_PRES NEWDELHI_LAT NEWDELHI_LON NEWDELHI_GRADE NEWDELHI_WIND NEWDELHI_PRES NEWDELHI_CI NEWDELHI_DP NEWDELHI_POCI REUNION_LAT REUNION_LON REUNION_TYPE REUNION_WIND REUNION_PRES REUNION_TNUM REUNION_CI REUNION_RMW REUNION_R34_NE REUNION_R34_SE REUNION_R34_SW REUNION_R34_NW REUNION_R50_NE REUNION_R50_SE REUNION_R50_SW REUNION_R50_NW REUNION_R64_NE REUNION_R64_SE REUNION_R64_SW REUNION_R64_NW BOM_LAT BOM_LON BOM_TYPE BOM_WIND BOM_PRES BOM_TNUM BOM_CI BOM_RMW BOM_R34_NE BOM_R34_SE BOM_R34_SW BOM_R34_NW BOM_R50_NE BOM_R50_SE BOM_R50_SW BOM_R50_NW BOM_R64_NE BOM_R64_SE BOM_R64_SW BOM_R64_NW BOM_ROCI BOM_POCI BOM_EYE BOM_POS_METHOD BOM_PRES_METHOD NADI_LAT NADI_LON NADI_CAT NADI_WIND NADI_PRES WELLINGTON_LAT WELLINGTON_LON WELLINGTON_WIND WELLINGTON_PRES DS824_LAT DS824_LON DS824_STAGE DS824_WIND DS824_PRES TD9636_LAT TD9636_LON TD9636_STAGE TD9636_WIND TD9636_PRES TD9635_LAT TD9635_LON TD9635_WIND TD9635_PRES TD9635_ROCI NEUMANN_LAT NEUMANN_LON NEUMANN_CLASS NEUMANN_WIND NEUMANN_PRES MLC_LAT MLC_LON MLC_CLASS MLC_WIND MLC_PRES USA_GUST BOM_GUST BOM_GUST_PER REUNION_GUST REUNION_GUST_PER USA_SEAHGT USA_SEARAD_NE USA_SEARAD_SE USA_SEARAD_SW USA_SEARAD_NW STORM_SPEED STORM_DIR
1996348N04104 1996 120 WP MM NOT_NAMED 1996-12-12 18:00:00 NR 4.20000 103.700 main 24 24 O_____________ jtwc_wp WP411996 4.20000 103.700 15 -1 6 90
1996348N04104 1996 120 WP MM NOT_NAMED 1996-12-12 21:00:00 NR 4.20002 104.000 main 56 56 P_____________ WP411996 4.20002 104.000 15 -1 6 90
1996348N04104 1996 120 WP MM NOT_NAMED 1996-12-13 00:00:00 NR 4.20000 104.300 main 89 89 O_____________ jtwc_wp WP411996 4.20000 104.300 15 -1 6 90
1996348N04104 1996 120 WP MM NOT_NAMED 1996-12-13 03:00:00 NR 4.19999 104.600 main 122 122 P_____________ WP411996 4.19999 104.600 17 -1 6 90
1996348N04104 1996 120 WP MM NOT_NAMED 1996-12-13 06:00:00 NR 4.20000 104.900 main 155 155 O_____________ jtwc_wp WP411996 4.20000 104.900 20 -1 6 90
1996348N04104 1996 120 WP MM NOT_NAMED 1996-12-13 09:00:00 NR 4.19999 105.200 main 189 189 P_____________ WP411996 4.19999 105.200 20 -1 6 90
1996348N04104 1996 120 WP MM NOT_NAMED 1996-12-13 12:00:00 NR 4.20000 105.500 main 222 222 O_____________ jtwc_wp WP411996 4.20000 105.500 20 -1 6 90
1996348N04104 1996 120 WP MM NOT_NAMED 1996-12-13 15:00:00 NR 4.20000 105.808 main 245 212 P_____________ WP411996 4.20000 105.808 20 -1 6 90
1996348N04104 1996 120 WP MM NOT_NAMED 1996-12-13 18:00:00 NR 4.20000 106.100 main 212 190 O_____________ jtwc_wp WP411996 4.20000 106.100 20 -1 5 90
1996348N04104 1996 120 WP MM NOT_NAMED 1996-12-13 21:00:00 NR 4.19998 106.358 main 179 157 P_____________ WP411996 4.19998 106.358 22 -1 5 90
1996348N04104 1996 120 WP MM NOT_NAMED 1996-12-14 00:00:00 NR 4.20000 106.600 main 157 124 O_____________ jtwc_wp WP411996 4.20000 106.600 25 -1 5 89
1996348N04104 1996 120 WP MM NOT_NAMED 1996-12-14 03:00:00 NR 4.20750 106.865 main 124 102 P_____________ WP411996 4.20750 106.865 25 -1 5 90
1996348N04104 1996 120 WP MM NOT_NAMED 1996-12-14 06:00:00 NR 4.20000 107.100 main 102 80 O_____________ jtwc_wp WP411996 4.20000 107.100 25 -1 4 96
1996348N04104 1996 120 WP MM NOT_NAMED 1996-12-14 09:00:00 NR 4.16499 107.265 main 80 67 P_____________ WP411996 4.16499 107.265 25 -1 3 109
1996348N04104 1996 120 WP MM NOT_NAMED 1996-12-14 12:00:00 NR 4.10000 107.400 main 67 55 O_____________ jtwc_wp WP411996 4.10000 107.400 25 -1 3 120
1996348N04104 1996 120 WP MM NOT_NAMED 1996-12-14 15:00:00 NR 4.00000 107.558 main 44 35 P_____________ WP411996 4.00000 107.558 25 -1 4 124
1996348N04104 1996 120 WP MM NOT_NAMED 1996-12-14 18:00:00 NR 3.90000 107.700 main 35 24 O_____________ jtwc_wp WP411996 3.90000 107.700 25 -1 3 122
1996348N04104 1996 120 WP MM NOT_NAMED 1996-12-14 21:00:00 NR 3.84999 107.800 main 31 22 P_____________ WP411996 3.84999 107.800 25 -1 2 117
1996348N04104 1996 120 WP MM NOT_NAMED 1996-12-15 00:00:00 NR 3.80000 107.900 main 22 11 O_____________ jtwc_wp WP411996 3.80000 107.900 25 -1 3 121
1996348N04104 1996 120 WP MM NOT_NAMED 1996-12-15 03:00:00 NR 3.70000 108.050 main 0 0 P_____________ WP411996 3.70000 108.050 25 -1 4 124
1996348N04104 1996 120 WP MM NOT_NAMED 1996-12-15 06:00:00 NR 3.60000 108.200 main 0 0 O_____________ jtwc_wp WP411996 3.60000 108.200 25 -1 3 121
1996348N04104 1996 120 WP MM NOT_NAMED 1996-12-15 09:00:00 NR 3.54999 108.300 main 15 15 P_____________ WP411996 3.54999 108.300 25 -1 2 117
1996348N04104 1996 120 WP MM NOT_NAMED 1996-12-15 12:00:00 NR 3.50000 108.400 main 24 24 O_____________ jtwc_wp WP411996 3.50000 108.400 25 -1 3 124
1996348N04104 1996 120 WP MM NOT_NAMED 1996-12-15 15:00:00 NR 3.39999 108.520 main 40 40 P_____________ WP411996 3.39999 108.520 25 -1 4 124
1996348N04104 1996 120 WP MM NOT_NAMED 1996-12-15 18:00:00 NR 3.30000 108.700 main 63 63 O_____________ jtwc_wp WP411996 3.30000 108.700 25 -1 5 110
1996348N04104 1996 120 WP MM NOT_NAMED 1996-12-15 21:00:00 NR 3.22752 108.993 main 94 94 P_____________ WP411996 3.22752 108.993 25 -1 6 99
1996348N04104 1996 120 WP MM NOT_NAMED 1996-12-16 00:00:00 NR 3.20000 109.300 main 120 120 O_____________ jtwc_wp WP411996 3.20000 109.300 25 -1 5 90
1996348N04104 1996 120 WP MM NOT_NAMED 1996-12-16 03:00:00 NR 3.22749 109.515 main 134 134 P_____________ WP411996 3.22749 109.515 25 -1 4 76
1996348N04104 1996 120 WP MM NOT_NAMED 1996-12-16 06:00:00 NR 3.30000 109.700 main 146 146 O_____________ jtwc_wp WP411996 3.30000 109.700 25 -1 4 70
1996348N04104 1996 120 WP MM NOT_NAMED 1996-12-16 09:00:00 NR 3.37000 109.900 main 160 160 P_____________ WP411996 3.37000 109.900 25 -1 4 63
1996348N04104 1996 120 WP MM NOT_NAMED 1996-12-16 12:00:00 NR 3.50000 110.100 main 170 158 O_____________ jtwc_wp WP411996 3.50000 110.100 25 -1 6 51
1996348N04104 1996 120 WP MM NOT_NAMED 1996-12-16 15:00:00 NR 3.73501 110.345 main 165 157 P_____________ WP411996 3.73501 110.345 25 -1 6 39
1996348N04104 1996 120 WP MM NOT_NAMED 1996-12-16 18:00:00 NR 4.00000 110.500 main 174 174 O_____________ jtwc_wp WP411996 4.00000 110.500 25 -1 5 12
1996348N04104 1996 120 WP MM NOT_NAMED 1996-12-16 21:00:00 NR 4.23000 110.445 main 198 198 P_____________ WP411996 4.23000 110.445 27 -1 5 334
1996348N04104 1996 120 WP MM NOT_NAMED 1996-12-17 00:00:00 NR 4.40000 110.300 main 215 207 O_____________ jtwc_wp WP411996 4.40000 110.300 30 -1 3 315
1996348N04104 1996 120 WP MM NOT_NAMED 1996-12-17 03:00:00 NR 4.47250 110.207 main 207 196 P_____________ WP411996 4.47250 110.207 30 -1 2 297
1996348N04104 1996 120 WP MM NOT_NAMED 1996-12-17 06:00:00 NR 4.50000 110.100 main 196 186 O_____________ jtwc_wp WP411996 4.50000 110.100 30 -1 3 288
1996348N04104 1996 120 WP MM NOT_NAMED 1996-12-17 09:00:00 NR 4.55751 109.950 main 189 169 P_____________ WP411996 4.55751 109.950 30 -1 3 289
1996348N04104 1996 120 WP MM NOT_NAMED 1996-12-17 12:00:00 NR 4.60000 109.800 main 169 159 O_____________ jtwc_wp WP411996 4.60000 109.800 30 -1 3 281
1996348N04104 1996 120 WP MM NOT_NAMED 1996-12-17 15:00:00 NR 4.60750 109.685 main 159 149 P_____________ WP411996 4.60750 109.685 30 -1 2 270
1996348N04104 1996 120 WP MM NOT_NAMED 1996-12-17 18:00:00 NR 4.60000 109.600 main 149 149 O_____________ jtwc_wp WP411996 4.60000 109.600 30 -1 1 267
1996348N04104 1996 120 WP MM NOT_NAMED 1996-12-17 21:00:00 NR 4.60000 109.550 main 149 139 P_____________ WP411996 4.60000 109.550 30 -1 1 270
1996348N04104 1996 120 WP MM NOT_NAMED 1996-12-18 00:00:00 NR 4.60000 109.500 main 139 129 O_____________ jtwc_wp WP411996 4.60000 109.500 30 -1 1 267
1996348N04104 1996 120 WP MM NOT_NAMED 1996-12-18 03:00:00 NR 4.59250 109.408 main 129 120 P_____________ WP411996 4.59250 109.408 30 -1 2 270
1996348N04104 1996 120 WP MM NOT_NAMED 1996-12-18 06:00:00 NR 4.60000 109.300 main 120 111 O_____________ jtwc_wp WP411996 4.60000 109.300 30 -1 2 283
1996348N04104 1996 120 WP MM NOT_NAMED 1996-12-18 09:00:00 NR 4.64250 109.193 main 111 110 P_____________ WP411996 4.64250 109.193 30 -1 2 297
1996348N04104 1996 120 WP MM NOT_NAMED 1996-12-18 12:00:00 NR 4.70000 109.100 main 110 110 O_____________ jtwc_wp WP411996 4.70000 109.100 30 -1 2 307
1996348N04104 1996 120 WP MM NOT_NAMED 1996-12-18 15:00:00 NR 4.75000 109.050 main 110 110 P_____________ WP411996 4.75000 109.050 27 -1 1 317
1996348N04104 1996 120 WP MM NOT_NAMED 1996-12-18 18:00:00 NR 4.80000 109.000 main 110 102 O_____________ jtwc_wp WP411996 4.80000 109.000 25 -1 2 309
1996348N04104 1996 120 WP MM NOT_NAMED 1996-12-18 21:00:00 NR 4.85750 108.915 main 111 105 P_____________ WP411996 4.85750 108.915 25 -1 2 297
1996348N04104 1996 120 WP MM NOT_NAMED 1996-12-19 00:00:00 NR 4.90000 108.800 main 105 100 O_____________ jtwc_wp WP411996 4.90000 108.800 25 -1 3 283
1996348N04104 1996 120 WP MM NOT_NAMED 1996-12-19 03:00:00 NR 4.91500 108.658 main 100 92 P_____________ WP411996 4.91500 108.658 25 -1 3 270
1996348N04104 1996 120 WP MM NOT_NAMED 1996-12-19 06:00:00 NR 4.90000 108.500 main 92 90 O_____________ jtwc_wp WP411996 4.90000 108.500 25 -1 3 257
1996348N04104 1996 120 WP MM NOT_NAMED 1996-12-19 09:00:00 NR 4.84999 108.365 main 79 78 P_____________ WP411996 4.84999 108.365 25 -1 3 251
1996348N04104 1996 120 WP MM NOT_NAMED 1996-12-19 12:00:00 NR 4.80000 108.200 main 78 78 O_____________ jtwc_wp WP411996 4.80000 108.200 25 -1 4 261
1996348N04104 1996 120 WP MM NOT_NAMED 1996-12-19 15:00:00 NR 4.79249 107.980 main 79 79 P_____________ WP411996 4.79249 107.980 25 -1 5 270
1996348N04104 1996 120 WP MM NOT_NAMED 1996-12-19 18:00:00 NR 4.80000 107.700 main 90 90 O_____________ jtwc_wp WP411996 4.80000 107.700 25 -1 6 270
1996348N04104 1996 120 WP MM NOT_NAMED 1996-12-19 21:00:00 NR 4.79251 107.357 main 110 110 P_____________ WP411996 4.79251 107.357 25 -1 7 270
1996348N04104 1996 120 WP MM NOT_NAMED 1996-12-20 00:00:00 NR 4.80000 107.000 main 142 142 O_____________ jtwc_wp WP411996 4.80000 107.000 25 -1 7 274
1996348N04104 1996 120 WP MM NOT_NAMED 1996-12-20 03:00:00 NR 4.84248 106.693 main 169 169 P_____________ WP411996 4.84248 106.693 25 -1 6 280
1996348N04104 1996 120 WP MM NOT_NAMED 1996-12-20 06:00:00 NR 4.90000 106.400 main 204 204 O_____________ jtwc_wp WP411996 4.90000 106.400 25 -1 6 280
1996348N04104 1996 120 WP MM NOT_NAMED 1996-12-20 09:00:00 NR 4.95000 106.093 main 238 233 P_____________ WP411996 4.95000 106.093 22 -1 6 280
1996348N04104 1996 120 WP MM NOT_NAMED 1996-12-20 12:00:00 NR 5.00000 105.800 main 261 239 O_____________ jtwc_wp WP411996 5.00000 105.800 20 -1 6 280
1996348N04104 1996 120 WP MM NOT_NAMED 1996-12-20 15:00:00 NR 5.04998 105.543 main 228 210 P_____________ WP411996 5.04998 105.543 20 -1 5 281
1996348N04104 1996 120 WP MM NOT_NAMED 1996-12-20 18:00:00 NR 5.10000 105.300 main 210 189 O_____________ jtwc_wp WP411996 5.10000 105.300 20 -1 5 282
1996348N04104 1996 120 WP MM NOT_NAMED 1996-12-20 21:00:00 NR 5.15002 105.053 main 193 161 P_____________ WP411996 5.15002 105.053 20 -1 5 281
1996348N04104 1996 120 WP MM NOT_NAMED 1996-12-21 00:00:00 NR 5.20000 104.800 main 161 O_____________ jtwc_wp WP411996 5.20000 104.800 20 -1 5 281

Digital Typhoon Data and Search

About IBTrACS Database

This database is a web-friendly format of International Best Track Archive for Climate Stewardship (IBTrACS), a global best track data archive curated by NOAA dating back to 1842.

Updated: 2021-10-08